sensor_id;sensor_type;location;lat;lon;timestamp;pressure;altitude;pressure_sealevel;temperature;humidity
13952;BME280;39535;52.192;9.886;2023-03-19T00:02:11;100179.91;;;11.68;91.88
13952;BME280;39535;52.192;9.886;2023-03-19T00:04:38;100169.50;;;11.67;92.37
13952;BME280;39535;52.192;9.886;2023-03-19T00:07:04;100168.50;;;11.71;92.10
13952;BME280;39535;52.192;9.886;2023-03-19T00:09:32;100180.69;;;11.72;92.03
13952;BME280;39535;52.192;9.886;2023-03-19T00:11:58;100188.66;;;11.67;91.77
13952;BME280;39535;52.192;9.886;2023-03-19T00:14:25;100165.25;;;11.63;92.83
13952;BME280;39535;52.192;9.886;2023-03-19T00:16:51;100162.56;;;11.66;92.76
13952;BME280;39535;52.192;9.886;2023-03-19T00:19:17;100164.16;;;11.71;92.99
13952;BME280;39535;52.192;9.886;2023-03-19T00:21:44;100157.34;;;11.66;93.07
13952;BME280;39535;52.192;9.886;2023-03-19T00:24:11;100148.41;;;11.73;93.20
13952;BME280;39535;52.192;9.886;2023-03-19T00:26:39;100167.38;;;11.48;92.44
13952;BME280;39535;52.192;9.886;2023-03-19T00:29:06;100121.53;;;11.04;95.47
13952;BME280;39535;52.192;9.886;2023-03-19T00:31:33;100091.59;;;10.84;96.55
13952;BME280;39535;52.192;9.886;2023-03-19T00:34:00;100060.28;;;10.83;97.68
13952;BME280;39535;52.192;9.886;2023-03-19T00:36:27;100042.59;;;10.60;98.85
13952;BME280;39535;52.192;9.886;2023-03-19T00:38:54;100002.94;;;10.45;100.00
13952;BME280;39535;52.192;9.886;2023-03-19T00:41:21;99988.13;;;10.46;100.00
13952;BME280;39535;52.192;9.886;2023-03-19T00:43:52;99978.44;;;10.51;100.00
13952;BME280;39535;52.192;9.886;2023-03-19T00:46:19;99964.03;;;10.36;100.00
13952;BME280;39535;52.192;9.886;2023-03-19T00:48:46;99950.88;;;10.41;100.00
13952;BME280;39535;52.192;9.886;2023-03-19T00:51:12;99960.88;;;10.58;100.00
13952;BME280;39535;52.192;9.886;2023-03-19T00:53:40;99984.09;;;10.68;100.00
13952;BME280;39535;52.192;9.886;2023-03-19T00:56:08;100025.53;;;10.81;98.20
13952;BME280;39535;52.192;9.886;2023-03-19T00:58:35;100054.16;;;10.84;96.52
13952;BME280;39535;52.192;9.886;2023-03-19T01:01:04;100082.84;;;10.85;95.94
13952;BME280;39535;52.192;9.886;2023-03-19T01:03:31;100098.59;;;10.82;95.57
13952;BME280;39535;52.192;9.886;2023-03-19T01:05:57;100105.16;;;10.63;95.76
13952;BME280;39535;52.192;9.886;2023-03-19T01:08:24;100087.88;;;10.59;96.74
13952;BME280;39535;52.192;9.886;2023-03-19T01:10:51;100085.88;;;10.68;96.48
13952;BME280;39535;52.192;9.886;2023-03-19T01:13:18;100104.00;;;10.75;95.94
13952;BME280;39535;52.192;9.886;2023-03-19T01:15:44;100116.00;;;10.82;94.83
13952;BME280;39535;52.192;9.886;2023-03-19T01:18:12;100142.09;;;10.82;94.11
13952;BME280;39535;52.192;9.886;2023-03-19T01:20:39;100158.72;;;10.79;93.31
13952;BME280;39535;52.192;9.886;2023-03-19T01:23:06;100183.88;;;10.82;92.65
13952;BME280;39535;52.192;9.886;2023-03-19T01:25:33;100183.00;;;10.83;92.52
13952;BME280;39535;52.192;9.886;2023-03-19T01:28:00;100161.66;;;10.65;94.50
13952;BME280;39535;52.192;9.886;2023-03-19T01:30:26;100132.06;;;10.66;95.64
13952;BME280;39535;52.192;9.886;2023-03-19T01:32:52;100120.59;;;10.72;95.69
13952;BME280;39535;52.192;9.886;2023-03-19T01:35:20;100125.78;;;10.73;94.98
13952;BME280;39535;52.192;9.886;2023-03-19T01:37:46;100137.84;;;10.78;94.19
13952;BME280;39535;52.192;9.886;2023-03-19T01:40:13;100146.66;;;10.73;93.54
13952;BME280;39535;52.192;9.886;2023-03-19T01:42:50;100166.81;;;10.68;93.81
13952;BME280;39535;52.192;9.886;2023-03-19T01:45:29;100154.66;;;10.66;94.00
13952;BME280;39535;52.192;9.886;2023-03-19T01:47:56;100138.31;;;10.59;94.99
13952;BME280;39535;52.192;9.886;2023-03-19T01:50:27;100134.72;;;10.63;94.52
13952;BME280;39535;52.192;9.886;2023-03-19T01:52:54;100140.81;;;10.62;93.70
13952;BME280;39535;52.192;9.886;2023-03-19T01:55:21;100164.25;;;10.65;92.55
13952;BME280;39535;52.192;9.886;2023-03-19T01:57:47;100178.16;;;10.66;91.99
13952;BME280;39535;52.192;9.886;2023-03-19T02:00:14;100191.22;;;10.66;91.64
13952;BME280;39535;52.192;9.886;2023-03-19T02:02:42;100200.00;;;10.62;92.46
13952;BME280;39535;52.192;9.886;2023-03-19T02:05:13;100196.59;;;10.58;92.27
13952;BME280;39535;52.192;9.886;2023-03-19T02:07:48;100195.88;;;10.53;92.48
13952;BME280;39535;52.192;9.886;2023-03-19T02:10:15;100187.25;;;10.49;92.85
13952;BME280;39535;52.192;9.886;2023-03-19T02:12:42;100189.00;;;10.49;92.43
13952;BME280;39535;52.192;9.886;2023-03-19T02:15:09;100189.81;;;10.52;92.45
13952;BME280;39535;52.192;9.886;2023-03-19T02:17:36;100182.06;;;10.48;92.32
13952;BME280;39535;52.192;9.886;2023-03-19T02:20:06;100186.25;;;10.55;92.41
13952;BME280;39535;52.192;9.886;2023-03-19T02:22:40;100181.06;;;10.53;92.82
13952;BME280;39535;52.192;9.886;2023-03-19T02:25:13;100167.03;;;10.58;92.75
13952;BME280;39535;52.192;9.886;2023-03-19T02:27:42;100173.09;;;10.60;92.65
13952;BME280;39535;52.192;9.886;2023-03-19T02:30:21;100170.47;;;10.60;92.71
13952;BME280;39535;52.192;9.886;2023-03-19T02:32:48;100174.03;;;10.57;92.60
13952;BME280;39535;52.192;9.886;2023-03-19T02:35:14;100173.25;;;10.52;92.36
13952;BME280;39535;52.192;9.886;2023-03-19T02:37:40;100170.66;;;10.52;92.62
13952;BME280;39535;52.192;9.886;2023-03-19T02:40:10;100184.59;;;10.52;92.03
13952;BME280;39535;52.192;9.886;2023-03-19T02:42:38;100180.38;;;10.45;92.49
13952;BME280;39535;52.192;9.886;2023-03-19T02:45:06;100173.41;;;10.46;92.91
13952;BME280;39535;52.192;9.886;2023-03-19T02:47:33;100167.34;;;10.45;92.79
13952;BME280;39535;52.192;9.886;2023-03-19T02:50:00;100170.91;;;10.41;92.76
13952;BME280;39535;52.192;9.886;2023-03-19T02:52:26;100164.75;;;10.44;93.21
13952;BME280;39535;52.192;9.886;2023-03-19T02:54:53;100156.97;;;10.42;93.47
13952;BME280;39535;52.192;9.886;2023-03-19T02:57:19;100145.66;;;10.42;93.97
13952;BME280;39535;52.192;9.886;2023-03-19T02:59:46;100136.91;;;10.44;94.33
13952;BME280;39535;52.192;9.886;2023-03-19T03:02:13;100118.59;;;10.46;95.25
13952;BME280;39535;52.192;9.886;2023-03-19T03:04:40;100109.00;;;10.48;95.52
13952;BME280;39535;52.192;9.886;2023-03-19T03:07:06;100102.91;;;10.49;95.52
13952;BME280;39535;52.192;9.886;2023-03-19T03:09:33;100090.69;;;10.49;95.67
13952;BME280;39535;52.192;9.886;2023-03-19T03:11:59;100097.56;;;10.53;95.55
13952;BME280;39535;52.192;9.886;2023-03-19T03:14:26;100099.28;;;10.55;95.17
13952;BME280;39535;52.192;9.886;2023-03-19T03:16:52;100112.38;;;10.53;94.61
13952;BME280;39535;52.192;9.886;2023-03-19T03:19:20;100127.06;;;10.56;94.40
13952;BME280;39535;52.192;9.886;2023-03-19T03:21:47;100141.94;;;10.52;94.38
13952;BME280;39535;52.192;9.886;2023-03-19T03:24:14;100147.22;;;10.50;94.12
13952;BME280;39535;52.192;9.886;2023-03-19T03:26:40;100159.41;;;10.48;93.46
13952;BME280;39535;52.192;9.886;2023-03-19T03:29:06;100164.63;;;10.48;92.99
13952;BME280;39535;52.192;9.886;2023-03-19T03:31:33;100184.69;;;10.46;92.86
13952;BME280;39535;52.192;9.886;2023-03-19T03:33:59;100179.44;;;10.48;92.37
13952;BME280;39535;52.192;9.886;2023-03-19T03:36:27;100187.41;;;10.42;92.34
13952;BME280;39535;52.192;9.886;2023-03-19T03:38:54;100179.63;;;10.40;92.94
13952;BME280;39535;52.192;9.886;2023-03-19T03:41:20;100173.56;;;10.38;93.03
13952;BME280;39535;52.192;9.886;2023-03-19T03:43:47;100166.53;;;10.42;93.65
13952;BME280;39535;52.192;9.886;2023-03-19T03:46:13;100158.72;;;10.42;93.67
13952;BME280;39535;52.192;9.886;2023-03-19T03:48:39;100181.22;;;10.46;92.05
13952;BME280;39535;52.192;9.886;2023-03-19T03:51:06;100185.44;;;10.53;92.89
13952;BME280;39535;52.192;9.886;2023-03-19T03:53:34;100174.03;;;10.57;93.63
13952;BME280;39535;52.192;9.886;2023-03-19T03:56:00;100169.66;;;10.58;93.83
13952;BME280;39535;52.192;9.886;2023-03-19T03:58:27;100171.47;;;10.54;93.62
13952;BME280;39535;52.192;9.886;2023-03-19T04:00:54;100169.84;;;10.48;93.25
13952;BME280;39535;52.192;9.886;2023-03-19T04:03:20;100175.06;;;10.48;93.15
13952;BME280;39535;52.192;9.886;2023-03-19T04:05:48;100174.31;;;10.45;93.44
13952;BME280;39535;52.192;9.886;2023-03-19T04:08:14;100180.38;;;10.45;93.17
13952;BME280;39535;52.192;9.886;2023-03-19T04:10:42;100182.16;;;10.45;93.17
13952;BME280;39535;52.192;9.886;2023-03-19T04:13:09;100180.53;;;10.39;93.12
13952;BME280;39535;52.192;9.886;2023-03-19T04:15:36;100175.31;;;10.39;92.94
13952;BME280;39535;52.192;9.886;2023-03-19T04:18:02;100174.47;;;10.37;93.09
13952;BME280;39535;52.192;9.886;2023-03-19T04:20:29;100166.78;;;10.29;93.45
13952;BME280;39535;52.192;9.886;2023-03-19T04:22:56;100159.03;;;10.26;93.90
13952;BME280;39535;52.192;9.886;2023-03-19T04:25:22;100147.06;;;10.18;94.31
13952;BME280;39535;52.192;9.886;2023-03-19T04:27:50;100131.47;;;10.14;95.19
13952;BME280;39535;52.192;9.886;2023-03-19T04:30:17;100109.94;;;10.05;95.93
13952;BME280;39535;52.192;9.886;2023-03-19T04:32:44;100084.94;;;9.96;96.66
13952;BME280;39535;52.192;9.886;2023-03-19T04:35:10;100075.41;;;9.95;96.90
13952;BME280;39535;52.192;9.886;2023-03-19T04:37:36;100075.31;;;9.98;97.10
13952;BME280;39535;52.192;9.886;2023-03-19T04:40:04;100066.50;;;10.05;97.17
13952;BME280;39535;52.192;9.886;2023-03-19T04:42:31;100079.34;;;10.13;96.08
13952;BME280;39535;52.192;9.886;2023-03-19T04:44:58;100101.06;;;10.13;94.90
13952;BME280;39535;52.192;9.886;2023-03-19T04:47:24;100108.88;;;10.13;94.89
13952;BME280;39535;52.192;9.886;2023-03-19T04:49:51;100113.25;;;10.13;94.85
13952;BME280;39535;52.192;9.886;2023-03-19T04:52:17;100107.47;;;9.99;95.63
13952;BME280;39535;52.192;9.886;2023-03-19T04:54:43;100089.19;;;10.00;96.45
13952;BME280;39535;52.192;9.886;2023-03-19T04:57:10;100082.13;;;10.05;96.50
13952;BME280;39535;52.192;9.886;2023-03-19T04:59:36;100088.09;;;10.10;96.27
13952;BME280;39535;52.192;9.886;2023-03-19T05:02:05;100097.63;;;10.13;95.54
13952;BME280;39535;52.192;9.886;2023-03-19T05:04:31;100113.16;;;10.16;94.96
13952;BME280;39535;52.192;9.886;2023-03-19T05:06:57;100132.34;;;10.15;94.47
13952;BME280;39535;52.192;9.886;2023-03-19T05:09:24;100146.19;;;10.17;94.18
13952;BME280;39535;52.192;9.886;2023-03-19T05:11:50;100148.16;;;10.07;94.68
13952;BME280;39535;52.192;9.886;2023-03-19T05:14:16;100133.78;;;9.88;95.88
13952;BME280;39535;52.192;9.886;2023-03-19T05:16:43;100129.28;;;9.94;95.46
13952;BME280;39535;52.192;9.886;2023-03-19T05:19:10;100132.69;;;9.98;94.80
13952;BME280;39535;52.192;9.886;2023-03-19T05:21:37;100150.69;;;10.10;94.36
13952;BME280;39535;52.192;9.886;2023-03-19T05:24:05;100162.00;;;10.09;94.40
13952;BME280;39535;52.192;9.886;2023-03-19T05:26:31;100150.88;;;10.01;95.31
13952;BME280;39535;52.192;9.886;2023-03-19T05:28:57;100138.63;;;10.05;95.46
13952;BME280;39535;52.192;9.886;2023-03-19T05:31:24;100152.44;;;10.10;94.54
13952;BME280;39535;52.192;9.886;2023-03-19T05:33:51;100158.50;;;10.10;93.91
13952;BME280;39535;52.192;9.886;2023-03-19T05:36:18;100177.56;;;10.12;93.75
13952;BME280;39535;52.192;9.886;2023-03-19T05:38:45;100188.00;;;10.12;93.47
13952;BME280;39535;52.192;9.886;2023-03-19T05:41:11;100188.00;;;10.12;93.23
13952;BME280;39535;52.192;9.886;2023-03-19T05:43:37;100197.56;;;10.13;93.01
13952;BME280;39535;52.192;9.886;2023-03-19T05:46:03;100202.75;;;10.15;92.62
13952;BME280;39535;52.192;9.886;2023-03-19T05:48:30;100221.88;;;10.14;92.11
13952;BME280;39535;52.192;9.886;2023-03-19T05:50:57;100212.47;;;9.63;94.73
13952;BME280;39535;52.192;9.886;2023-03-19T05:53:26;100162.31;;;9.50;95.96
13952;BME280;39535;52.192;9.886;2023-03-19T05:55:52;100099.72;;;9.10;99.22
13952;BME280;39535;52.192;9.886;2023-03-19T05:58:18;100049.47;;;9.05;100.00
13952;BME280;39535;52.192;9.886;2023-03-19T06:00:45;100022.50;;;9.07;100.00
13952;BME280;39535;52.192;9.886;2023-03-19T06:03:12;100003.19;;;9.18;100.00
13952;BME280;39535;52.192;9.886;2023-03-19T06:05:39;99999.41;;;9.34;100.00
13952;BME280;39535;52.192;9.886;2023-03-19T06:08:05;100014.81;;;9.45;100.00
13952;BME280;39535;52.192;9.886;2023-03-19T06:10:34;100039.84;;;9.52;99.60
13952;BME280;39535;52.192;9.886;2023-03-19T06:13:01;100054.50;;;9.58;98.51
13952;BME280;39535;52.192;9.886;2023-03-19T06:15:28;100072.59;;;9.64;97.87
13952;BME280;39535;52.192;9.886;2023-03-19T06:17:55;100101.06;;;9.73;97.06
13952;BME280;39535;52.192;9.886;2023-03-19T06:20:22;100116.59;;;9.79;96.43
13952;BME280;39535;52.192;9.886;2023-03-19T06:22:48;100125.28;;;9.80;96.37
13952;BME280;39535;52.192;9.886;2023-03-19T06:25:15;100131.19;;;9.88;96.33
13952;BME280;39535;52.192;9.886;2023-03-19T06:27:42;100143.28;;;9.90;96.13
13952;BME280;39535;52.192;9.886;2023-03-19T06:30:09;100160.78;;;9.85;95.88
13952;BME280;39535;52.192;9.886;2023-03-19T06:32:36;100151.31;;;9.36;98.80
13952;BME280;39535;52.192;9.886;2023-03-19T06:35:03;100098.31;;;9.37;100.00
13952;BME280;39535;52.192;9.886;2023-03-19T06:37:30;100091.00;;;9.56;100.00
13952;BME280;39535;52.192;9.886;2023-03-19T06:39:57;100069.91;;;9.67;100.00
13952;BME280;39535;52.192;9.886;2023-03-19T06:42:23;100064.47;;;9.79;100.00
13952;BME280;39535;52.192;9.886;2023-03-19T06:44:51;100064.34;;;9.85;100.00
13952;BME280;39535;52.192;9.886;2023-03-19T06:47:18;100058.94;;;9.93;100.00
13952;BME280;39535;52.192;9.886;2023-03-19T06:49:44;100062.16;;;10.04;100.00
13952;BME280;39535;52.192;9.886;2023-03-19T06:52:10;100069.81;;;10.12;100.00
13952;BME280;39535;52.192;9.886;2023-03-19T06:54:37;100079.34;;;10.13;100.00
13952;BME280;39535;52.192;9.886;2023-03-19T06:57:03;100173.75;;;10.30;95.05
13952;BME280;39535;52.192;9.886;2023-03-19T06:59:29;100196.91;;;10.44;95.68
13952;BME280;39535;52.192;9.886;2023-03-19T07:01:57;100181.91;;;10.54;97.35
13952;BME280;39535;52.192;9.886;2023-03-19T07:04:23;100173.13;;;10.58;97.83
13952;BME280;39535;52.192;9.886;2023-03-19T07:06:50;100182.59;;;10.62;96.99
13952;BME280;39535;52.192;9.886;2023-03-19T07:09:16;100199.97;;;10.63;96.17
13952;BME280;39535;52.192;9.886;2023-03-19T07:11:42;100249.38;;;10.72;94.31
13952;BME280;39535;52.192;9.886;2023-03-19T07:14:09;100246.59;;;10.80;94.88
13952;BME280;39535;52.192;9.886;2023-03-19T07:16:35;100243.22;;;10.75;95.61
13952;BME280;39535;52.192;9.886;2023-03-19T07:19:03;100260.53;;;10.79;92.60
13952;BME280;39535;52.192;9.886;2023-03-19T07:21:30;100306.44;;;10.89;93.01
13952;BME280;39535;52.192;9.886;2023-03-19T07:23:56;100325.44;;;10.96;92.53
13952;BME280;39535;52.192;9.886;2023-03-19T07:26:22;100312.19;;;11.04;93.13
13952;BME280;39535;52.192;9.886;2023-03-19T07:28:49;100300.91;;;11.03;93.99
13952;BME280;39535;52.192;9.886;2023-03-19T07:31:16;100295.69;;;11.02;94.33
13952;BME280;39535;52.192;9.886;2023-03-19T07:33:42;100264.34;;;11.02;96.19
13952;BME280;39535;52.192;9.886;2023-03-19T07:36:10;100242.56;;;11.04;97.19
13952;BME280;39535;52.192;9.886;2023-03-19T07:38:36;100205.88;;;11.07;98.34
13952;BME280;39535;52.192;9.886;2023-03-19T07:41:03;100165.84;;;11.07;100.00
13952;BME280;39535;52.192;9.886;2023-03-19T07:43:29;100145.75;;;11.10;100.00
13952;BME280;39535;52.192;9.886;2023-03-19T07:45:56;100128.28;;;11.12;100.00
13952;BME280;39535;52.192;9.886;2023-03-19T07:48:22;100111.69;;;11.13;100.00
13952;BME280;39535;52.192;9.886;2023-03-19T07:50:49;100100.44;;;11.11;100.00
13952;BME280;39535;52.192;9.886;2023-03-19T07:53:17;100077.28;;;10.98;100.00
13952;BME280;39535;52.192;9.886;2023-03-19T07:55:44;100046.03;;;10.95;100.00
13952;BME280;39535;52.192;9.886;2023-03-19T07:58:10;100046.97;;;10.92;100.00
13952;BME280;39535;52.192;9.886;2023-03-19T08:00:36;100057.19;;;11.01;100.00
13952;BME280;39535;52.192;9.886;2023-03-19T08:03:03;100068.38;;;11.06;100.00
13952;BME280;39535;52.192;9.886;2023-03-19T08:05:29;100083.25;;;11.03;100.00
13952;BME280;39535;52.192;9.886;2023-03-19T08:07:55;100116.84;;;11.17;100.00
13952;BME280;39535;52.192;9.886;2023-03-19T08:10:23;100096.59;;;11.25;100.00
13952;BME280;39535;52.192;9.886;2023-03-19T08:12:49;100079.75;;;11.35;100.00
13952;BME280;39535;52.192;9.886;2023-03-19T08:15:16;100077.78;;;11.43;100.00
13952;BME280;39535;52.192;9.886;2023-03-19T08:17:43;100074.06;;;11.52;100.00
13952;BME280;39535;52.192;9.886;2023-03-19T08:20:11;100079.13;;;11.58;100.00
13952;BME280;39535;52.192;9.886;2023-03-19T08:22:41;100085.78;;;11.68;100.00
13952;BME280;39535;52.192;9.886;2023-03-19T08:25:08;100090.78;;;11.76;100.00
13952;BME280;39535;52.192;9.886;2023-03-19T08:27:36;100082.75;;;11.82;100.00
13952;BME280;39535;52.192;9.886;2023-03-19T08:30:04;100087.69;;;11.93;100.00
13952;BME280;39535;52.192;9.886;2023-03-19T08:32:31;100094.31;;;12.05;100.00
13952;BME280;39535;52.192;9.886;2023-03-19T08:34:58;100097.63;;;12.11;100.00
13952;BME280;39535;52.192;9.886;2023-03-19T08:37:25;100110.31;;;12.24;100.00
13952;BME280;39535;52.192;9.886;2023-03-19T08:39:52;100130.91;;;12.35;100.00
13952;BME280;39535;52.192;9.886;2023-03-19T08:42:18;100141.88;;;12.47;100.00
13952;BME280;39535;52.192;9.886;2023-03-19T08:44:46;100160.94;;;12.51;100.00
13952;BME280;39535;52.192;9.886;2023-03-19T08:47:13;100169.31;;;12.62;100.00
13952;BME280;39535;52.192;9.886;2023-03-19T08:49:39;100153.38;;;12.42;100.00
13952;BME280;39535;52.192;9.886;2023-03-19T08:52:06;100173.59;;;12.37;100.00
13952;BME280;39535;52.192;9.886;2023-03-19T08:54:32;100189.63;;;12.54;98.98
13952;BME280;39535;52.192;9.886;2023-03-19T08:56:59;100243.19;;;12.72;96.77
13952;BME280;39535;52.192;9.886;2023-03-19T08:59:25;100208.66;;;12.87;100.00
13952;BME280;39535;52.192;9.886;2023-03-19T09:01:53;100215.06;;;13.05;99.06
13952;BME280;39535;52.192;9.886;2023-03-19T09:04:20;100268.22;;;13.10;94.67
13952;BME280;39535;52.192;9.886;2023-03-19T09:06:47;100357.88;;;13.20;89.62
13952;BME280;39535;52.192;9.886;2023-03-19T09:09:16;100423.84;;;13.36;89.66
13952;BME280;39535;52.192;9.886;2023-03-19T09:11:42;100424.31;;;13.49;88.95
13952;BME280;39535;52.192;9.886;2023-03-19T09:14:09;100499.16;;;13.59;85.43
13952;BME280;39535;52.192;9.886;2023-03-19T09:16:36;100575.03;;;13.65;83.74
13952;BME280;39535;52.192;9.886;2023-03-19T09:19:04;100604.78;;;13.66;82.29
13952;BME280;39535;52.192;9.886;2023-03-19T09:21:30;100555.66;;;13.71;86.55
13952;BME280;39535;52.192;9.886;2023-03-19T09:23:56;100573.06;;;13.74;85.42
13952;BME280;39535;52.192;9.886;2023-03-19T09:26:23;100569.53;;;13.75;85.14
13952;BME280;39535;52.192;9.886;2023-03-19T09:28:49;100707.69;;;13.76;76.76
13952;BME280;39535;52.192;9.886;2023-03-19T09:31:15;100769.41;;;13.89;75.80
13952;BME280;39535;52.192;9.886;2023-03-19T09:33:42;100838.19;;;14.02;74.92
13952;BME280;39535;52.192;9.886;2023-03-19T09:36:09;100868.59;;;14.09;73.83
13952;BME280;39535;52.192;9.886;2023-03-19T09:38:36;100856.19;;;14.16;76.69
13952;BME280;39535;52.192;9.886;2023-03-19T09:41:09;100857.88;;;14.18;75.73
13952;BME280;39535;52.192;9.886;2023-03-19T09:43:49;100844.66;;;14.21;76.73
13952;BME280;39535;52.192;9.886;2023-03-19T09:46:25;100813.63;;;14.36;78.40
13952;BME280;39535;52.192;9.886;2023-03-19T09:48:57;100802.97;;;14.40;77.26
13952;BME280;39535;52.192;9.886;2023-03-19T09:51:32;100848.75;;;14.32;74.73
13952;BME280;39535;52.192;9.886;2023-03-19T09:54:02;100867.78;;;14.40;75.00
13952;BME280;39535;52.192;9.886;2023-03-19T09:56:31;100846.41;;;14.52;75.65
13952;BME280;39535;52.192;9.886;2023-03-19T09:58:58;100821.06;;;14.51;79.07
13952;BME280;39535;52.192;9.886;2023-03-19T10:01:26;100836.94;;;14.46;72.25
13952;BME280;39535;52.192;9.886;2023-03-19T10:04:11;100903.03;;;14.64;72.30
13952;BME280;39535;52.192;9.886;2023-03-19T10:06:42;100938.47;;;14.80;71.86
13952;BME280;39535;52.192;9.886;2023-03-19T10:09:24;100954.84;;;14.90;71.49
13952;BME280;39535;52.192;9.886;2023-03-19T10:12:08;100963.63;;;14.91;69.51
13952;BME280;39535;52.192;9.886;2023-03-19T10:15:03;100989.00;;;14.92;69.20
13952;BME280;39535;52.192;9.886;2023-03-19T10:17:38;101002.69;;;15.03;70.07
13952;BME280;39535;52.192;9.886;2023-03-19T10:20:08;101012.44;;;14.99;68.61
13952;BME280;39535;52.192;9.886;2023-03-19T10:22:40;100992.03;;;15.07;71.56
13952;BME280;39535;52.192;9.886;2023-03-19T10:25:15;100971.75;;;15.13;71.34
13952;BME280;39535;52.192;9.886;2023-03-19T10:27:45;100922.09;;;15.30;72.52
13952;BME280;39535;52.192;9.886;2023-03-19T10:30:13;100908.88;;;15.33;73.16
13952;BME280;39535;52.192;9.886;2023-03-19T10:32:42;100863.81;;;15.44;73.39
13952;BME280;39535;52.192;9.886;2023-03-19T10:35:17;100928.53;;;15.21;68.86
13952;BME280;39535;52.192;9.886;2023-03-19T10:37:45;100954.31;;;15.38;71.74
13952;BME280;39535;52.192;9.886;2023-03-19T10:40:18;100942.28;;;15.58;70.01
13952;BME280;39535;52.192;9.886;2023-03-19T10:42:55;100944.47;;;15.73;69.85
13952;BME280;39535;52.192;9.886;2023-03-19T10:45:27;100928.28;;;15.85;70.20
13952;BME280;39535;52.192;9.886;2023-03-19T10:47:56;100970.56;;;15.81;67.78
13952;BME280;39535;52.192;9.886;2023-03-19T10:50:28;100970.88;;;15.70;67.33
13952;BME280;39535;52.192;9.886;2023-03-19T10:53:03;101004.75;;;15.82;66.74
13952;BME280;39535;52.192;9.886;2023-03-19T10:55:31;101014.47;;;15.80;66.67
13952;BME280;39535;52.192;9.886;2023-03-19T10:58:02;101040.34;;;15.94;66.32
13952;BME280;39535;52.192;9.886;2023-03-19T11:00:31;101067.88;;;15.84;65.83
13952;BME280;39535;52.192;9.886;2023-03-19T11:02:58;101072.13;;;15.88;67.05
13952;BME280;39535;52.192;9.886;2023-03-19T11:05:29;101043.84;;;15.95;64.15
13952;BME280;39535;52.192;9.886;2023-03-19T11:07:59;101121.66;;;15.75;62.87
13952;BME280;39535;52.192;9.886;2023-03-19T11:10:28;101132.31;;;15.69;64.07
13952;BME280;39535;52.192;9.886;2023-03-19T11:12:56;101103.66;;;15.89;66.08
13952;BME280;39535;52.192;9.886;2023-03-19T11:15:27;101099.47;;;15.84;64.41
13952;BME280;39535;52.192;9.886;2023-03-19T11:17:58;101085.78;;;16.01;64.99
13952;BME280;39535;52.192;9.886;2023-03-19T11:20:30;101082.44;;;15.96;64.61
13952;BME280;39535;52.192;9.886;2023-03-19T11:23:00;101063.13;;;16.23;66.69
13952;BME280;39535;52.192;9.886;2023-03-19T11:25:30;101032.69;;;16.41;66.02
13952;BME280;39535;52.192;9.886;2023-03-19T11:28:01;101075.41;;;16.51;64.00
13952;BME280;39535;52.192;9.886;2023-03-19T11:30:35;101161.78;;;16.41;61.46
13952;BME280;39535;52.192;9.886;2023-03-19T11:33:12;101164.03;;;16.25;62.96
13952;BME280;39535;52.192;9.886;2023-03-19T11:35:45;101114.13;;;16.49;64.29
13952;BME280;39535;52.192;9.886;2023-03-19T11:38:18;101090.03;;;16.86;64.07
13952;BME280;39535;52.192;9.886;2023-03-19T11:40:50;101077.25;;;17.48;63.06
13952;BME280;39535;52.192;9.886;2023-03-19T11:43:39;101157.78;;;17.60;60.30
13952;BME280;39535;52.192;9.886;2023-03-19T11:46:19;101170.97;;;18.09;59.73
13952;BME280;39535;52.192;9.886;2023-03-19T11:49:05;101225.13;;;18.20;56.49
13952;BME280;39535;52.192;9.886;2023-03-19T11:51:37;101276.53;;;18.35;56.67
13952;BME280;39535;52.192;9.886;2023-03-19T11:54:16;101274.63;;;19.29;56.16
13952;BME280;39535;52.192;9.886;2023-03-19T11:56:47;101327.09;;;18.97;56.19
13952;BME280;39535;52.192;9.886;2023-03-19T11:59:35;101344.78;;;18.95;53.15
13952;BME280;39535;52.192;9.886;2023-03-19T12:05:12;101374.25;;;17.60;56.61
13952;BME280;39535;52.192;9.886;2023-03-19T12:07:47;101308.38;;;17.57;56.05
13952;BME280;39535;52.192;9.886;2023-03-19T12:10:27;101298.47;;;17.63;58.56
13952;BME280;39535;52.192;9.886;2023-03-19T12:13:05;101243.84;;;17.91;59.00
13952;BME280;39535;52.192;9.886;2023-03-19T12:15:38;101235.78;;;18.17;56.44
13952;BME280;39535;52.192;9.886;2023-03-19T12:18:17;101241.47;;;18.98;56.72
13952;BME280;39535;52.192;9.886;2023-03-19T12:20:55;101277.16;;;19.10;53.11
13952;BME280;39535;52.192;9.886;2023-03-19T12:23:34;101318.63;;;19.74;53.59
13952;BME280;39535;52.192;9.886;2023-03-19T12:26:06;101386.22;;;18.47;54.46
13952;BME280;39535;52.192;9.886;2023-03-19T12:28:34;101343.63;;;18.78;55.04
13952;BME280;39535;52.192;9.886;2023-03-19T12:31:27;101354.28;;;18.30;54.86
13952;BME280;39535;52.192;9.886;2023-03-19T12:34:08;101313.59;;;17.85;57.73
13952;BME280;39535;52.192;9.886;2023-03-19T12:36:44;101261.22;;;17.71;58.18
13952;BME280;39535;52.192;9.886;2023-03-19T12:39:17;101232.53;;;17.10;59.86
13952;BME280;39535;52.192;9.886;2023-03-19T12:41:48;101188.44;;;16.59;60.71
13952;BME280;39535;52.192;9.886;2023-03-19T12:44:18;101142.47;;;16.13;61.86
13952;BME280;39535;52.192;9.886;2023-03-19T12:46:51;101065.31;;;16.37;62.91
13952;BME280;39535;52.192;9.886;2023-03-19T12:49:24;101030.19;;;16.10;61.49
13952;BME280;39535;52.192;9.886;2023-03-19T12:51:58;101042.88;;;16.25;61.20
13952;BME280;39535;52.192;9.886;2023-03-19T12:54:28;101029.03;;;16.45;61.59
13952;BME280;39535;52.192;9.886;2023-03-19T12:57:02;101033.78;;;16.34;59.58
13952;BME280;39535;52.192;9.886;2023-03-19T12:59:34;101072.50;;;16.32;60.04
13952;BME280;39535;52.192;9.886;2023-03-19T13:02:09;101048.97;;;16.53;59.25